Weather at Chicago Midway International Airport

Public forecast

Using degrees Fahrenheit for public forecast. Weather courtesy of forecast.io.

Current aviation weather report (METAR) for Chicago Midway International Airport

2022/12/08 13:53 (retrieved 16 minutes ago)

KMDW 081353Z 07010KT 10SM OVC026 04/M01 A3039 RMK AO2 SLP297 T00391011

Aviation forecast (TAF) for Chicago Midway International Airport

2022/12/08 12:22 (retrieved 2 hours ago)

TAF KMDW 081120Z 0812/0918 04007KT P6SM BKN020 FM081800 07009KT P6SM SCT020 BKN100 FM090600 09010KT P6SM SCT020 OVC035 FM091100 10012G18KT 5SM -RA SCT007 OVC015 FM091500 10012G20KT 3SM -RA BR OVC006